sensor_id;sensor_type;location;lat;lon;timestamp;P1;durP1;ratioP1;P2;durP2;ratioP2
77591;SDS011;66891;46.884;17.436;2023-07-28T00:02:14;4.80;;;1.10;;
77591;SDS011;66891;46.884;17.436;2023-07-28T00:04:41;5.35;;;1.13;;
77591;SDS011;66891;46.884;17.436;2023-07-28T00:07:08;6.22;;;1.52;;
77591;SDS011;66891;46.884;17.436;2023-07-28T00:09:36;4.90;;;1.20;;
77591;SDS011;66891;46.884;17.436;2023-07-28T00:12:04;5.53;;;1.33;;
77591;SDS011;66891;46.884;17.436;2023-07-28T00:14:31;5.18;;;1.17;;
77591;SDS011;66891;46.884;17.436;2023-07-28T00:16:58;4.47;;;1.02;;
77591;SDS011;66891;46.884;17.436;2023-07-28T00:19:25;6.25;;;0.82;;
77591;SDS011;66891;46.884;17.436;2023-07-28T00:21:52;7.03;;;1.17;;
77591;SDS011;66891;46.884;17.436;2023-07-28T00:24:19;4.50;;;1.00;;
77591;SDS011;66891;46.884;17.436;2023-07-28T00:26:47;5.18;;;0.93;;
77591;SDS011;66891;46.884;17.436;2023-07-28T00:29:15;4.97;;;1.13;;
77591;SDS011;66891;46.884;17.436;2023-07-28T00:31:42;5.50;;;1.20;;
77591;SDS011;66891;46.884;17.436;2023-07-28T00:34:09;4.60;;;0.80;;
77591;SDS011;66891;46.884;17.436;2023-07-28T00:36:36;6.07;;;1.10;;
77591;SDS011;66891;46.884;17.436;2023-07-28T00:39:06;4.78;;;1.10;;
77591;SDS011;66891;46.884;17.436;2023-07-28T00:41:33;5.97;;;1.20;;
77591;SDS011;66891;46.884;17.436;2023-07-28T00:44:01;5.38;;;1.10;;
77591;SDS011;66891;46.884;17.436;2023-07-28T00:46:28;5.50;;;1.30;;
77591;SDS011;66891;46.884;17.436;2023-07-28T00:48:55;4.90;;;1.05;;
77591;SDS011;66891;46.884;17.436;2023-07-28T00:51:22;5.95;;;1.10;;
77591;SDS011;66891;46.884;17.436;2023-07-28T00:53:50;6.15;;;1.05;;
77591;SDS011;66891;46.884;17.436;2023-07-28T00:56:19;4.70;;;1.20;;
77591;SDS011;66891;46.884;17.436;2023-07-28T00:58:47;5.90;;;1.07;;
77591;SDS011;66891;46.884;17.436;2023-07-28T01:04:02;5.28;;;0.90;;
77591;SDS011;66891;46.884;17.436;2023-07-28T01:09:52;5.63;;;1.00;;
77591;SDS011;66891;46.884;17.436;2023-07-28T01:12:23;4.30;;;0.80;;
77591;SDS011;66891;46.884;17.436;2023-07-28T01:14:50;4.80;;;1.10;;
77591;SDS011;66891;46.884;17.436;2023-07-28T01:17:17;5.00;;;0.98;;
77591;SDS011;66891;46.884;17.436;2023-07-28T01:22:56;4.82;;;1.00;;
77591;SDS011;66891;46.884;17.436;2023-07-28T01:25:31;4.53;;;1.40;;
77591;SDS011;66891;46.884;17.436;2023-07-28T01:28:01;5.05;;;1.05;;
77591;SDS011;66891;46.884;17.436;2023-07-28T01:30:30;4.47;;;0.95;;
77591;SDS011;66891;46.884;17.436;2023-07-28T01:32:57;5.47;;;1.02;;
77591;SDS011;66891;46.884;17.436;2023-07-28T01:35:25;4.50;;;1.00;;
77591;SDS011;66891;46.884;17.436;2023-07-28T01:40:57;6.00;;;1.27;;
77591;SDS011;66891;46.884;17.436;2023-07-28T01:43:25;5.75;;;1.40;;
77591;SDS011;66891;46.884;17.436;2023-07-28T01:45:52;5.65;;;1.10;;
77591;SDS011;66891;46.884;17.436;2023-07-28T01:48:19;6.15;;;1.17;;
77591;SDS011;66891;46.884;17.436;2023-07-28T01:53:58;5.65;;;1.02;;
77591;SDS011;66891;46.884;17.436;2023-07-28T01:56:25;5.00;;;1.30;;
77591;SDS011;66891;46.884;17.436;2023-07-28T01:58:53;5.00;;;1.20;;
77591;SDS011;66891;46.884;17.436;2023-07-28T02:01:20;5.18;;;1.20;;
77591;SDS011;66891;46.884;17.436;2023-07-28T02:03:47;5.67;;;1.20;;
77591;SDS011;66891;46.884;17.436;2023-07-28T02:06:14;5.40;;;1.17;;
77591;SDS011;66891;46.884;17.436;2023-07-28T02:08:41;6.15;;;1.17;;
77591;SDS011;66891;46.884;17.436;2023-07-28T02:11:44;5.70;;;1.15;;
77591;SDS011;66891;46.884;17.436;2023-07-28T02:14:12;5.63;;;1.38;;
77591;SDS011;66891;46.884;17.436;2023-07-28T02:16:39;9.50;;;1.20;;
77591;SDS011;66891;46.884;17.436;2023-07-28T02:19:06;6.45;;;1.35;;
77591;SDS011;66891;46.884;17.436;2023-07-28T02:21:34;5.90;;;1.30;;
77591;SDS011;66891;46.884;17.436;2023-07-28T02:26:47;4.80;;;1.08;;
77591;SDS011;66891;46.884;17.436;2023-07-28T02:29:18;4.90;;;1.10;;
77591;SDS011;66891;46.884;17.436;2023-07-28T02:31:45;5.63;;;1.20;;
77591;SDS011;66891;46.884;17.436;2023-07-28T02:34:12;5.05;;;1.13;;
77591;SDS011;66891;46.884;17.436;2023-07-28T02:36:39;5.80;;;1.30;;
77591;SDS011;66891;46.884;17.436;2023-07-28T02:39:06;5.20;;;1.40;;
77591;SDS011;66891;46.884;17.436;2023-07-28T02:41:33;5.43;;;1.20;;
77591;SDS011;66891;46.884;17.436;2023-07-28T02:44:00;5.63;;;1.23;;
77591;SDS011;66891;46.884;17.436;2023-07-28T02:49:52;7.00;;;1.30;;
77591;SDS011;66891;46.884;17.436;2023-07-28T02:52:19;4.93;;;1.20;;
77591;SDS011;66891;46.884;17.436;2023-07-28T02:54:46;6.20;;;0.97;;
77591;SDS011;66891;46.884;17.436;2023-07-28T02:57:17;5.80;;;1.25;;
77591;SDS011;66891;46.884;17.436;2023-07-28T02:59:44;6.15;;;1.52;;
77591;SDS011;66891;46.884;17.436;2023-07-28T03:02:11;5.15;;;1.30;;
77591;SDS011;66891;46.884;17.436;2023-07-28T03:04:38;6.32;;;1.55;;
77591;SDS011;66891;46.884;17.436;2023-07-28T03:12:57;5.82;;;1.23;;
77591;SDS011;66891;46.884;17.436;2023-07-28T03:15:24;5.85;;;0.95;;
77591;SDS011;66891;46.884;17.436;2023-07-28T03:17:51;5.38;;;1.20;;
77591;SDS011;66891;46.884;17.436;2023-07-28T03:20:18;9.40;;;1.20;;
77591;SDS011;66891;46.884;17.436;2023-07-28T03:22:45;5.55;;;1.23;;
77591;SDS011;66891;46.884;17.436;2023-07-28T03:25:12;6.38;;;1.40;;
77591;SDS011;66891;46.884;17.436;2023-07-28T03:27:39;6.20;;;1.20;;
77591;SDS011;66891;46.884;17.436;2023-07-28T03:30:08;6.22;;;1.40;;
77591;SDS011;66891;46.884;17.436;2023-07-28T03:32:38;5.43;;;1.30;;
77591;SDS011;66891;46.884;17.436;2023-07-28T03:35:05;5.55;;;1.58;;
77591;SDS011;66891;46.884;17.436;2023-07-28T03:37:32;5.55;;;1.30;;
77591;SDS011;66891;46.884;17.436;2023-07-28T03:39:59;4.68;;;1.10;;
77591;SDS011;66891;46.884;17.436;2023-07-28T03:42:27;5.28;;;1.30;;
77591;SDS011;66891;46.884;17.436;2023-07-28T03:44:54;5.67;;;1.33;;
77591;SDS011;66891;46.884;17.436;2023-07-28T03:47:22;6.13;;;1.42;;
77591;SDS011;66891;46.884;17.436;2023-07-28T03:49:49;6.43;;;1.65;;
77591;SDS011;66891;46.884;17.436;2023-07-28T03:52:16;6.38;;;1.40;;
77591;SDS011;66891;46.884;17.436;2023-07-28T03:54:43;7.53;;;1.52;;
77591;SDS011;66891;46.884;17.436;2023-07-28T03:57:10;6.00;;;1.30;;
77591;SDS011;66891;46.884;17.436;2023-07-28T03:59:37;5.65;;;1.30;;
77591;SDS011;66891;46.884;17.436;2023-07-28T04:02:04;5.30;;;1.30;;
77591;SDS011;66891;46.884;17.436;2023-07-28T04:04:34;5.18;;;1.33;;
77591;SDS011;66891;46.884;17.436;2023-07-28T04:07:02;6.63;;;1.60;;
77591;SDS011;66891;46.884;17.436;2023-07-28T04:09:29;5.47;;;1.50;;
77591;SDS011;66891;46.884;17.436;2023-07-28T04:11:56;5.85;;;1.55;;
77591;SDS011;66891;46.884;17.436;2023-07-28T04:14:24;5.65;;;1.55;;
77591;SDS011;66891;46.884;17.436;2023-07-28T04:16:51;6.97;;;1.70;;
77591;SDS011;66891;46.884;17.436;2023-07-28T04:19:18;5.47;;;1.50;;
77591;SDS011;66891;46.884;17.436;2023-07-28T04:21:46;6.77;;;1.40;;
77591;SDS011;66891;46.884;17.436;2023-07-28T04:24:13;5.72;;;1.63;;
77591;SDS011;66891;46.884;17.436;2023-07-28T04:26:40;5.82;;;1.52;;
77591;SDS011;66891;46.884;17.436;2023-07-28T04:29:09;5.32;;;1.70;;
77591;SDS011;66891;46.884;17.436;2023-07-28T04:31:36;5.97;;;1.30;;
77591;SDS011;66891;46.884;17.436;2023-07-28T04:34:03;9.47;;;1.83;;
77591;SDS011;66891;46.884;17.436;2023-07-28T04:36:30;7.05;;;1.70;;
77591;SDS011;66891;46.884;17.436;2023-07-28T04:38:59;6.32;;;1.70;;
77591;SDS011;66891;46.884;17.436;2023-07-28T04:41:26;6.22;;;1.67;;
77591;SDS011;66891;46.884;17.436;2023-07-28T04:43:53;6.18;;;1.85;;
77591;SDS011;66891;46.884;17.436;2023-07-28T04:46:20;6.43;;;1.50;;
77591;SDS011;66891;46.884;17.436;2023-07-28T04:48:47;5.60;;;1.70;;
77591;SDS011;66891;46.884;17.436;2023-07-28T04:51:14;5.75;;;1.73;;
77591;SDS011;66891;46.884;17.436;2023-07-28T04:53:41;5.78;;;1.30;;
77591;SDS011;66891;46.884;17.436;2023-07-28T04:56:10;6.57;;;1.50;;
77591;SDS011;66891;46.884;17.436;2023-07-28T04:58:37;6.90;;;1.73;;
77591;SDS011;66891;46.884;17.436;2023-07-28T05:01:04;7.88;;;1.70;;
77591;SDS011;66891;46.884;17.436;2023-07-28T05:03:32;6.97;;;1.80;;
77591;SDS011;66891;46.884;17.436;2023-07-28T05:05:59;5.93;;;1.60;;
77591;SDS011;66891;46.884;17.436;2023-07-28T05:08:26;5.65;;;1.83;;
77591;SDS011;66891;46.884;17.436;2023-07-28T05:10:53;6.10;;;1.63;;
77591;SDS011;66891;46.884;17.436;2023-07-28T05:13:21;6.18;;;1.63;;
77591;SDS011;66891;46.884;17.436;2023-07-28T05:15:48;8.13;;;2.03;;
77591;SDS011;66891;46.884;17.436;2023-07-28T05:18:15;7.07;;;1.75;;
77591;SDS011;66891;46.884;17.436;2023-07-28T05:20:42;9.15;;;1.88;;
77591;SDS011;66891;46.884;17.436;2023-07-28T05:23:09;5.90;;;1.70;;
77591;SDS011;66891;46.884;17.436;2023-07-28T05:25:36;7.68;;;1.80;;
77591;SDS011;66891;46.884;17.436;2023-07-28T05:28:03;6.63;;;1.83;;
77591;SDS011;66891;46.884;17.436;2023-07-28T05:30:32;5.82;;;1.55;;
77591;SDS011;66891;46.884;17.436;2023-07-28T05:32:59;5.90;;;1.45;;
77591;SDS011;66891;46.884;17.436;2023-07-28T05:35:26;7.10;;;1.50;;
77591;SDS011;66891;46.884;17.436;2023-07-28T05:37:53;6.38;;;1.70;;
77591;SDS011;66891;46.884;17.436;2023-07-28T05:40:21;6.45;;;1.58;;
77591;SDS011;66891;46.884;17.436;2023-07-28T05:42:48;6.00;;;1.85;;
77591;SDS011;66891;46.884;17.436;2023-07-28T05:45:15;6.47;;;1.77;;
77591;SDS011;66891;46.884;17.436;2023-07-28T05:47:44;7.10;;;1.97;;
77591;SDS011;66891;46.884;17.436;2023-07-28T05:50:11;6.10;;;1.40;;
77591;SDS011;66891;46.884;17.436;2023-07-28T05:52:38;5.90;;;1.70;;
77591;SDS011;66891;46.884;17.436;2023-07-28T05:55:05;7.00;;;1.70;;
77591;SDS011;66891;46.884;17.436;2023-07-28T05:57:32;7.28;;;1.55;;
77591;SDS011;66891;46.884;17.436;2023-07-28T05:59:59;11.30;;;4.33;;
77591;SDS011;66891;46.884;17.436;2023-07-28T06:02:27;7.88;;;2.45;;
77591;SDS011;66891;46.884;17.436;2023-07-28T06:04:55;6.95;;;1.80;;
77591;SDS011;66891;46.884;17.436;2023-07-28T06:07:22;7.90;;;1.70;;
77591;SDS011;66891;46.884;17.436;2023-07-28T06:09:49;5.93;;;1.70;;
77591;SDS011;66891;46.884;17.436;2023-07-28T06:12:16;6.30;;;1.60;;
77591;SDS011;66891;46.884;17.436;2023-07-28T06:14:44;6.70;;;1.45;;
77591;SDS011;66891;46.884;17.436;2023-07-28T06:17:11;7.80;;;2.10;;
77591;SDS011;66891;46.884;17.436;2023-07-28T06:19:38;5.57;;;1.75;;
77591;SDS011;66891;46.884;17.436;2023-07-28T06:22:06;6.18;;;1.67;;
77591;SDS011;66891;46.884;17.436;2023-07-28T06:24:33;5.93;;;1.77;;
77591;SDS011;66891;46.884;17.436;2023-07-28T06:27:00;5.97;;;1.60;;
77591;SDS011;66891;46.884;17.436;2023-07-28T06:29:33;5.80;;;1.73;;
77591;SDS011;66891;46.884;17.436;2023-07-28T06:32:00;5.70;;;1.52;;
77591;SDS011;66891;46.884;17.436;2023-07-28T06:34:28;6.07;;;2.00;;
77591;SDS011;66891;46.884;17.436;2023-07-28T06:36:55;5.63;;;1.80;;
77591;SDS011;66891;46.884;17.436;2023-07-28T06:40:08;6.13;;;1.88;;
77591;SDS011;66891;46.884;17.436;2023-07-28T06:42:37;6.40;;;1.90;;
77591;SDS011;66891;46.884;17.436;2023-07-28T06:45:04;6.70;;;2.08;;
77591;SDS011;66891;46.884;17.436;2023-07-28T06:47:32;5.97;;;2.15;;
77591;SDS011;66891;46.884;17.436;2023-07-28T06:50:00;6.28;;;2.10;;
77591;SDS011;66891;46.884;17.436;2023-07-28T06:52:27;6.45;;;2.30;;
77591;SDS011;66891;46.884;17.436;2023-07-28T06:54:54;6.80;;;2.20;;
77591;SDS011;66891;46.884;17.436;2023-07-28T06:57:23;6.22;;;2.40;;
77591;SDS011;66891;46.884;17.436;2023-07-28T06:59:51;7.70;;;2.55;;
77591;SDS011;66891;46.884;17.436;2023-07-28T07:02:18;6.80;;;2.17;;
77591;SDS011;66891;46.884;17.436;2023-07-28T07:04:46;7.28;;;2.50;;
77591;SDS011;66891;46.884;17.436;2023-07-28T07:07:13;6.37;;;1.90;;
77591;SDS011;66891;46.884;17.436;2023-07-28T07:09:40;6.72;;;2.00;;
77591;SDS011;66891;46.884;17.436;2023-07-28T07:12:08;6.00;;;2.42;;
77591;SDS011;66891;46.884;17.436;2023-07-28T07:14:37;7.38;;;2.75;;
77591;SDS011;66891;46.884;17.436;2023-07-28T07:17:06;6.30;;;2.15;;
77591;SDS011;66891;46.884;17.436;2023-07-28T07:19:35;7.10;;;2.07;;
77591;SDS011;66891;46.884;17.436;2023-07-28T07:22:02;6.50;;;1.73;;
77591;SDS011;66891;46.884;17.436;2023-07-28T07:24:30;6.63;;;2.30;;
77591;SDS011;66891;46.884;17.436;2023-07-28T07:26:57;7.18;;;2.40;;
77591;SDS011;66891;46.884;17.436;2023-07-28T07:29:25;7.18;;;2.20;;
77591;SDS011;66891;46.884;17.436;2023-07-28T07:31:53;10.00;;;2.07;;
77591;SDS011;66891;46.884;17.436;2023-07-28T07:34:23;5.22;;;1.70;;
77591;SDS011;66891;46.884;17.436;2023-07-28T07:36:50;6.90;;;2.20;;
77591;SDS011;66891;46.884;17.436;2023-07-28T07:39:17;5.35;;;1.67;;
77591;SDS011;66891;46.884;17.436;2023-07-28T07:41:45;7.82;;;2.13;;
77591;SDS011;66891;46.884;17.436;2023-07-28T07:44:12;5.83;;;1.70;;
77591;SDS011;66891;46.884;17.436;2023-07-28T07:46:40;5.53;;;1.70;;
77591;SDS011;66891;46.884;17.436;2023-07-28T07:49:11;5.82;;;2.13;;
77591;SDS011;66891;46.884;17.436;2023-07-28T07:51:38;8.27;;;1.90;;
77591;SDS011;66891;46.884;17.436;2023-07-28T07:54:05;6.20;;;2.03;;
77591;SDS011;66891;46.884;17.436;2023-07-28T07:56:33;6.20;;;1.80;;
77591;SDS011;66891;46.884;17.436;2023-07-28T07:59:00;6.25;;;2.08;;
77591;SDS011;66891;46.884;17.436;2023-07-28T08:01:28;5.30;;;1.77;;
77591;SDS011;66891;46.884;17.436;2023-07-28T08:03:55;7.35;;;2.03;;
77591;SDS011;66891;46.884;17.436;2023-07-28T08:06:24;6.30;;;1.92;;
77591;SDS011;66891;46.884;17.436;2023-07-28T08:08:51;6.43;;;1.90;;
77591;SDS011;66891;46.884;17.436;2023-07-28T08:11:20;5.50;;;1.80;;
77591;SDS011;66891;46.884;17.436;2023-07-28T08:13:47;6.80;;;2.30;;
77591;SDS011;66891;46.884;17.436;2023-07-28T08:16:15;6.40;;;2.33;;
77591;SDS011;66891;46.884;17.436;2023-07-28T08:18:42;6.60;;;2.08;;
77591;SDS011;66891;46.884;17.436;2023-07-28T08:21:10;6.50;;;2.00;;
77591;SDS011;66891;46.884;17.436;2023-07-28T08:23:38;7.13;;;2.15;;
77591;SDS011;66891;46.884;17.436;2023-07-28T08:26:06;6.35;;;1.80;;
77591;SDS011;66891;46.884;17.436;2023-07-28T08:28:33;5.85;;;1.88;;
77591;SDS011;66891;46.884;17.436;2023-07-28T08:31:00;6.22;;;1.85;;
77591;SDS011;66891;46.884;17.436;2023-07-28T08:33:28;7.40;;;1.80;;
77591;SDS011;66891;46.884;17.436;2023-07-28T08:35:55;6.30;;;1.52;;
77591;SDS011;66891;46.884;17.436;2023-07-28T08:38:22;5.78;;;2.05;;
77591;SDS011;66891;46.884;17.436;2023-07-28T08:40:51;6.00;;;2.05;;
77591;SDS011;66891;46.884;17.436;2023-07-28T08:43:18;6.75;;;2.10;;
77591;SDS011;66891;46.884;17.436;2023-07-28T08:45:46;5.97;;;1.80;;
77591;SDS011;66891;46.884;17.436;2023-07-28T08:48:13;5.97;;;2.25;;
77591;SDS011;66891;46.884;17.436;2023-07-28T08:50:41;8.85;;;2.22;;
77591;SDS011;66891;46.884;17.436;2023-07-28T08:53:09;7.07;;;2.25;;
77591;SDS011;66891;46.884;17.436;2023-07-28T08:55:36;6.55;;;2.30;;
77591;SDS011;66891;46.884;17.436;2023-07-28T08:58:15;6.07;;;2.07;;
77591;SDS011;66891;46.884;17.436;2023-07-28T09:00:44;6.00;;;1.90;;
77591;SDS011;66891;46.884;17.436;2023-07-28T09:03:11;6.40;;;1.85;;
77591;SDS011;66891;46.884;17.436;2023-07-28T09:05:39;6.45;;;2.20;;
77591;SDS011;66891;46.884;17.436;2023-07-28T09:08:07;5.88;;;2.10;;
77591;SDS011;66891;46.884;17.436;2023-07-28T09:10:43;5.70;;;2.30;;
77591;SDS011;66891;46.884;17.436;2023-07-28T09:13:12;6.25;;;1.80;;
77591;SDS011;66891;46.884;17.436;2023-07-28T09:15:45;7.03;;;2.58;;
77591;SDS011;66891;46.884;17.436;2023-07-28T09:18:31;5.85;;;2.30;;
77591;SDS011;66891;46.884;17.436;2023-07-28T09:20:58;6.97;;;2.50;;
77591;SDS011;66891;46.884;17.436;2023-07-28T09:23:29;9.23;;;2.10;;
77591;SDS011;66891;46.884;17.436;2023-07-28T09:26:00;5.65;;;1.80;;
77591;SDS011;66891;46.884;17.436;2023-07-28T09:28:36;7.93;;;2.65;;
77591;SDS011;66891;46.884;17.436;2023-07-28T09:31:07;6.40;;;2.05;;
77591;SDS011;66891;46.884;17.436;2023-07-28T09:33:37;7.43;;;1.80;;
77591;SDS011;66891;46.884;17.436;2023-07-28T09:36:10;5.40;;;1.87;;
77591;SDS011;66891;46.884;17.436;2023-07-28T09:38:38;5.78;;;1.90;;
77591;SDS011;66891;46.884;17.436;2023-07-28T09:41:09;6.70;;;2.10;;
77591;SDS011;66891;46.884;17.436;2023-07-28T09:43:39;5.65;;;2.10;;
77591;SDS011;66891;46.884;17.436;2023-07-28T09:46:09;9.75;;;2.10;;
77591;SDS011;66891;46.884;17.436;2023-07-28T09:48:38;9.53;;;2.30;;
77591;SDS011;66891;46.884;17.436;2023-07-28T09:51:18;5.07;;;2.00;;
77591;SDS011;66891;46.884;17.436;2023-07-28T09:53:48;5.57;;;1.80;;
77591;SDS011;66891;46.884;17.436;2023-07-28T09:56:19;7.50;;;2.13;;
77591;SDS011;66891;46.884;17.436;2023-07-28T09:58:58;6.68;;;2.53;;
77591;SDS011;66891;46.884;17.436;2023-07-28T10:01:32;6.93;;;2.00;;
77591;SDS011;66891;46.884;17.436;2023-07-28T10:04:01;6.15;;;2.40;;
77591;SDS011;66891;46.884;17.436;2023-07-28T10:06:30;5.38;;;1.92;;
77591;SDS011;66891;46.884;17.436;2023-07-28T10:09:03;6.03;;;1.60;;
77591;SDS011;66891;46.884;17.436;2023-07-28T10:11:37;5.90;;;1.95;;
77591;SDS011;66891;46.884;17.436;2023-07-28T10:14:09;5.80;;;2.03;;
77591;SDS011;66891;46.884;17.436;2023-07-28T10:16:43;6.15;;;2.40;;
77591;SDS011;66891;46.884;17.436;2023-07-28T10:19:19;5.30;;;2.10;;
77591;SDS011;66891;46.884;17.436;2023-07-28T10:21:50;5.70;;;2.60;;
77591;SDS011;66891;46.884;17.436;2023-07-28T10:27:29;5.53;;;2.23;;
77591;SDS011;66891;46.884;17.436;2023-07-28T10:30:00;4.85;;;1.73;;
77591;SDS011;66891;46.884;17.436;2023-07-28T10:32:38;6.28;;;2.33;;
77591;SDS011;66891;46.884;17.436;2023-07-28T10:35:09;6.70;;;2.50;;
77591;SDS011;66891;46.884;17.436;2023-07-28T10:37:50;5.90;;;2.47;;
77591;SDS011;66891;46.884;17.436;2023-07-28T10:40:26;5.67;;;2.47;;
77591;SDS011;66891;46.884;17.436;2023-07-28T10:42:55;6.60;;;1.90;;
77591;SDS011;66891;46.884;17.436;2023-07-28T10:45:24;5.95;;;2.65;;
77591;SDS011;66891;46.884;17.436;2023-07-28T10:47:59;5.60;;;2.25;;
77591;SDS011;66891;46.884;17.436;2023-07-28T10:50:28;5.82;;;2.35;;
77591;SDS011;66891;46.884;17.436;2023-07-28T10:52:58;6.07;;;2.27;;
77591;SDS011;66891;46.884;17.436;2023-07-28T10:55:29;5.93;;;1.60;;
77591;SDS011;66891;46.884;17.436;2023-07-28T10:57:57;5.70;;;2.40;;
77591;SDS011;66891;46.884;17.436;2023-07-28T11:00:27;5.90;;;1.98;;
77591;SDS011;66891;46.884;17.436;2023-07-28T11:03:01;7.78;;;2.35;;
77591;SDS011;66891;46.884;17.436;2023-07-28T11:05:30;6.93;;;2.50;;
77591;SDS011;66891;46.884;17.436;2023-07-28T11:07:58;6.50;;;2.38;;
77591;SDS011;66891;46.884;17.436;2023-07-28T11:10:28;7.93;;;2.75;;
77591;SDS011;66891;46.884;17.436;2023-07-28T11:12:57;7.07;;;1.90;;
77591;SDS011;66891;46.884;17.436;2023-07-28T11:15:43;6.15;;;2.45;;
77591;SDS011;66891;46.884;17.436;2023-07-28T11:18:16;5.83;;;2.33;;
77591;SDS011;66891;46.884;17.436;2023-07-28T11:20:49;5.75;;;2.33;;
77591;SDS011;66891;46.884;17.436;2023-07-28T11:23:19;7.82;;;2.67;;
77591;SDS011;66891;46.884;17.436;2023-07-28T11:25:50;6.35;;;2.13;;
77591;SDS011;66891;46.884;17.436;2023-07-28T11:28:19;7.18;;;2.47;;
77591;SDS011;66891;46.884;17.436;2023-07-28T11:30:47;6.37;;;2.30;;
77591;SDS011;66891;46.884;17.436;2023-07-28T11:33:15;6.72;;;2.75;;
77591;SDS011;66891;46.884;17.436;2023-07-28T11:35:44;6.38;;;3.00;;
77591;SDS011;66891;46.884;17.436;2023-07-28T11:38:14;6.70;;;2.55;;
77591;SDS011;66891;46.884;17.436;2023-07-28T11:40:43;7.60;;;2.88;;
77591;SDS011;66891;46.884;17.436;2023-07-28T11:43:11;5.70;;;2.20;;
77591;SDS011;66891;46.884;17.436;2023-07-28T11:45:40;7.63;;;2.50;;
77591;SDS011;66891;46.884;17.436;2023-07-28T11:48:13;6.03;;;2.53;;
77591;SDS011;66891;46.884;17.436;2023-07-28T11:50:44;5.63;;;2.15;;
77591;SDS011;66891;46.884;17.436;2023-07-28T11:53:14;5.45;;;2.35;;
77591;SDS011;66891;46.884;17.436;2023-07-28T11:55:42;5.40;;;2.47;;
77591;SDS011;66891;46.884;17.436;2023-07-28T11:58:10;6.45;;;3.10;;
77591;SDS011;66891;46.884;17.436;2023-07-28T12:00:39;7.00;;;3.30;;
77591;SDS011;66891;46.884;17.436;2023-07-28T12:03:10;6.05;;;2.80;;
77591;SDS011;66891;46.884;17.436;2023-07-28T12:06:02;7.15;;;2.67;;
77591;SDS011;66891;46.884;17.436;2023-07-28T12:08:36;7.10;;;3.07;;
77591;SDS011;66891;46.884;17.436;2023-07-28T12:11:04;8.65;;;3.35;;
77591;SDS011;66891;46.884;17.436;2023-07-28T12:13:46;5.70;;;3.35;;
77591;SDS011;66891;46.884;17.436;2023-07-28T12:16:38;5.60;;;3.00;;
77591;SDS011;66891;46.884;17.436;2023-07-28T12:19:10;7.85;;;3.13;;
77591;SDS011;66891;46.884;17.436;2023-07-28T12:21:38;7.07;;;3.37;;
77591;SDS011;66891;46.884;17.436;2023-07-28T12:24:06;5.45;;;2.85;;
77591;SDS011;66891;46.884;17.436;2023-07-28T12:26:34;6.68;;;3.08;;
77591;SDS011;66891;46.884;17.436;2023-07-28T12:29:06;6.72;;;3.70;;
77591;SDS011;66891;46.884;17.436;2023-07-28T12:31:37;8.45;;;4.15;;
77591;SDS011;66891;46.884;17.436;2023-07-28T12:34:08;5.90;;;3.67;;
77591;SDS011;66891;46.884;17.436;2023-07-28T12:36:36;6.55;;;3.47;;
77591;SDS011;66891;46.884;17.436;2023-07-28T12:39:07;7.93;;;3.70;;
77591;SDS011;66891;46.884;17.436;2023-07-28T12:41:37;7.10;;;3.40;;
77591;SDS011;66891;46.884;17.436;2023-07-28T12:44:08;7.25;;;3.60;;
77591;SDS011;66891;46.884;17.436;2023-07-28T12:46:40;6.23;;;3.53;;
77591;SDS011;66891;46.884;17.436;2023-07-28T12:49:08;6.05;;;3.50;;
77591;SDS011;66891;46.884;17.436;2023-07-28T12:51:47;5.88;;;3.35;;
77591;SDS011;66891;46.884;17.436;2023-07-28T12:54:18;6.72;;;3.80;;
77591;SDS011;66891;46.884;17.436;2023-07-28T12:56:46;7.93;;;3.92;;
77591;SDS011;66891;46.884;17.436;2023-07-28T12:59:14;5.80;;;3.47;;
77591;SDS011;66891;46.884;17.436;2023-07-28T13:01:44;6.85;;;3.58;;
77591;SDS011;66891;46.884;17.436;2023-07-28T13:04:12;6.82;;;3.45;;
77591;SDS011;66891;46.884;17.436;2023-07-28T13:06:40;6.88;;;2.63;;
77591;SDS011;66891;46.884;17.436;2023-07-28T13:09:07;6.15;;;2.72;;
77591;SDS011;66891;46.884;17.436;2023-07-28T13:11:39;5.80;;;2.30;;
77591;SDS011;66891;46.884;17.436;2023-07-28T13:14:09;6.72;;;2.75;;
77591;SDS011;66891;46.884;17.436;2023-07-28T13:16:37;5.65;;;2.45;;
77591;SDS011;66891;46.884;17.436;2023-07-28T13:19:04;7.72;;;2.75;;
77591;SDS011;66891;46.884;17.436;2023-07-28T13:21:32;6.65;;;2.67;;
77591;SDS011;66891;46.884;17.436;2023-07-28T13:24:00;6.47;;;2.53;;
77591;SDS011;66891;46.884;17.436;2023-07-28T13:26:27;5.65;;;2.60;;
77591;SDS011;66891;46.884;17.436;2023-07-28T13:28:56;7.32;;;2.80;;
77591;SDS011;66891;46.884;17.436;2023-07-28T13:31:25;6.80;;;3.35;;
77591;SDS011;66891;46.884;17.436;2023-07-28T13:33:52;6.00;;;2.10;;
77591;SDS011;66891;46.884;17.436;2023-07-28T13:36:22;5.40;;;2.00;;
77591;SDS011;66891;46.884;17.436;2023-07-28T13:38:50;7.20;;;2.45;;
77591;SDS011;66891;46.884;17.436;2023-07-28T13:41:17;6.43;;;2.40;;
77591;SDS011;66891;46.884;17.436;2023-07-28T13:43:45;7.22;;;1.95;;
77591;SDS011;66891;46.884;17.436;2023-07-28T13:46:13;4.82;;;1.83;;
77591;SDS011;66891;46.884;17.436;2023-07-28T13:48:41;5.57;;;2.13;;
77591;SDS011;66891;46.884;17.436;2023-07-28T13:51:19;6.25;;;2.20;;
77591;SDS011;66891;46.884;17.436;2023-07-28T13:53:56;5.75;;;2.53;;
77591;SDS011;66891;46.884;17.436;2023-07-28T13:56:26;5.38;;;2.10;;
77591;SDS011;66891;46.884;17.436;2023-07-28T13:58:54;6.43;;;2.13;;
77591;SDS011;66891;46.884;17.436;2023-07-28T14:01:23;7.13;;;1.67;;
77591;SDS011;66891;46.884;17.436;2023-07-28T14:03:51;6.00;;;1.70;;
77591;SDS011;66891;46.884;17.436;2023-07-28T14:06:18;5.22;;;2.00;;
77591;SDS011;66891;46.884;17.436;2023-07-28T14:08:46;6.15;;;2.35;;
77591;SDS011;66891;46.884;17.436;2023-07-28T14:11:13;6.90;;;1.90;;
77591;SDS011;66891;46.884;17.436;2023-07-28T14:13:40;8.70;;;2.07;;
77591;SDS011;66891;46.884;17.436;2023-07-28T14:16:08;7.38;;;2.05;;
77591;SDS011;66891;46.884;17.436;2023-07-28T14:18:38;6.05;;;2.25;;
77591;SDS011;66891;46.884;17.436;2023-07-28T14:21:07;6.97;;;2.17;;
77591;SDS011;66891;46.884;17.436;2023-07-28T14:23:35;5.78;;;2.42;;
77591;SDS011;66891;46.884;17.436;2023-07-28T14:26:02;5.30;;;2.10;;
77591;SDS011;66891;46.884;17.436;2023-07-28T14:28:30;5.95;;;2.03;;
77591;SDS011;66891;46.884;17.436;2023-07-28T14:30:57;4.97;;;2.08;;
77591;SDS011;66891;46.884;17.436;2023-07-28T14:33:24;5.60;;;2.25;;
77591;SDS011;66891;46.884;17.436;2023-07-28T14:35:53;6.40;;;2.45;;
77591;SDS011;66891;46.884;17.436;2023-07-28T14:38:20;5.70;;;2.30;;
77591;SDS011;66891;46.884;17.436;2023-07-28T14:40:48;5.40;;;2.50;;
77591;SDS011;66891;46.884;17.436;2023-07-28T14:43:18;6.20;;;2.60;;
77591;SDS011;66891;46.884;17.436;2023-07-28T14:45:46;6.30;;;2.25;;
77591;SDS011;66891;46.884;17.436;2023-07-28T14:48:16;5.85;;;2.20;;
77591;SDS011;66891;46.884;17.436;2023-07-28T14:50:43;5.60;;;2.00;;
77591;SDS011;66891;46.884;17.436;2023-07-28T14:53:31;7.40;;;2.60;;
77591;SDS011;66891;46.884;17.436;2023-07-28T14:55:59;5.72;;;2.35;;
77591;SDS011;66891;46.884;17.436;2023-07-28T14:58:27;6.95;;;2.28;;
77591;SDS011;66891;46.884;17.436;2023-07-28T15:00:55;5.82;;;2.20;;
77591;SDS011;66891;46.884;17.436;2023-07-28T15:03:25;5.33;;;1.80;;
77591;SDS011;66891;46.884;17.436;2023-07-28T15:05:53;7.18;;;2.22;;
77591;SDS011;66891;46.884;17.436;2023-07-28T15:08:21;5.30;;;2.22;;
77591;SDS011;66891;46.884;17.436;2023-07-28T15:10:51;5.88;;;2.70;;
77591;SDS011;66891;46.884;17.436;2023-07-28T15:13:18;6.00;;;2.65;;
77591;SDS011;66891;46.884;17.436;2023-07-28T15:15:45;7.33;;;2.60;;